<?xml version='1.0' encoding='UTF-8'?><gpx version="1.1" creator="JPX - https://github.com/jenetics/jpx" xmlns="http://www.topografix.com/GPX/1/1"><trk><trkseg><trkpt lat="40.728063315220055" lon="-7.346619264504794"><ele>505.0</ele><time>2026-04-21T18:53:09.999Z</time></trkpt><trkpt lat="40.728012863502684" lon="-7.346569562370513"><ele>504.99999999999994</ele><time>2026-04-21T18:53:13.999Z</time></trkpt><trkpt lat="40.727988489703215" lon="-7.346653614367921"><ele>505.0</ele><time>2026-04-21T18:53:18.999Z</time></trkpt><trkpt lat="40.72795214001164" lon="-7.346724338645999"><ele>505.0</ele><time>2026-04-21T18:53:23.999Z</time></trkpt><trkpt lat="40.72790662905289" lon="-7.346793662394928"><ele>504.99999999999994</ele><time>2026-04-21T18:53:28.999Z</time></trkpt><trkpt lat="40.72785506432055" lon="-7.346856832691184"><ele>505.0</ele><time>2026-04-21T18:53:32.999Z</time></trkpt><trkpt lat="40.72778922629742" lon="-7.346895504894421"><ele>505.0</ele><time>2026-04-21T18:53:36.999Z</time></trkpt><trkpt lat="40.72773801048804" lon="-7.346967233553403"><ele>504.2857142857143</ele><time>2026-04-21T18:53:41.999Z</time></trkpt><trkpt lat="40.727666763984345" lon="-7.347010820137648"><ele>503.57142857142856</ele><time>2026-04-21T18:53:46.999Z</time></trkpt><trkpt lat="40.72760690973611" lon="-7.347070252013226"><ele>502.85714285714283</ele><time>2026-04-21T18:53:51.998Z</time></trkpt><trkpt lat="40.72755784500807" lon="-7.347141259519733"><ele>502.1428571428571</ele><time>2026-04-21T18:53:56.998Z</time></trkpt><trkpt lat="40.727504983195026" lon="-7.347213643732892"><ele>501.42857142857144</ele><time>2026-04-21T18:54:01.998Z</time></trkpt><trkpt lat="40.72746038736194" lon="-7.347294579869796"><ele>500.71428571428567</ele><time>2026-04-21T18:54:06.998Z</time></trkpt><trkpt lat="40.72741691735334" lon="-7.347362356938634"><ele>500.0</ele><time>2026-04-21T18:54:11.998Z</time></trkpt><trkpt lat="40.72736907419093" lon="-7.347438637743036"><ele>500.0</ele><time>2026-04-21T18:54:16.998Z</time></trkpt><trkpt lat="40.727321444867755" lon="-7.3475197542436375"><ele>500.0</ele><time>2026-04-21T18:54:22Z</time></trkpt><trkpt lat="40.727278527053144" lon="-7.347582659175057"><ele>500.0</ele><time>2026-04-21T18:54:26Z</time></trkpt><trkpt lat="40.7272351290192" lon="-7.347644554965355"><ele>500.0</ele><time>2026-04-21T18:54:30Z</time></trkpt><trkpt lat="40.72718592915345" lon="-7.347706324264948"><ele>500.0</ele><time>2026-04-21T18:54:34Z</time></trkpt><trkpt lat="40.727142639918725" lon="-7.347769842009184"><ele>500.0</ele><time>2026-04-21T18:54:38Z</time></trkpt><trkpt lat="40.727084702034404" lon="-7.347832095094725"><ele>500.0</ele><time>2026-04-21T18:54:43Z</time></trkpt><trkpt lat="40.72701816779082" lon="-7.347876553817774"><ele>500.0</ele><time>2026-04-21T18:54:48Z</time></trkpt><trkpt lat="40.726942604033674" lon="-7.34789504790736"><ele>500.0</ele><time>2026-04-21T18:54:53Z</time></trkpt><trkpt lat="40.72688049469098" lon="-7.347910030136706"><ele>500.0</ele><time>2026-04-21T18:54:57Z</time></trkpt><trkpt lat="40.726817621765825" lon="-7.347930660285332"><ele>500.0</ele><time>2026-04-21T18:55:00.999Z</time></trkpt><trkpt lat="40.72674751612146" lon="-7.347972189062306"><ele>500.0</ele><time>2026-04-21T18:55:05.999Z</time></trkpt><trkpt lat="40.72667582886143" lon="-7.348012871365478"><ele>500.0</ele><time>2026-04-21T18:55:10.999Z</time></trkpt><trkpt lat="40.72661815854794" lon="-7.348050322837863"><ele>500.0</ele><time>2026-04-21T18:55:14.999Z</time></trkpt><trkpt lat="40.726559734839086" lon="-7.34811115467583"><ele>499.42857142857144</ele><time>2026-04-21T18:55:19.999Z</time></trkpt><trkpt lat="40.7265153667515" lon="-7.348195193253613"><ele>498.8571428571429</ele><time>2026-04-21T18:55:24.999Z</time></trkpt><trkpt lat="40.72647795600444" lon="-7.348274573848115"><ele>498.28571428571433</ele><time>2026-04-21T18:55:29.999Z</time></trkpt><trkpt lat="40.72645481979552" lon="-7.3483658212622744"><ele>497.7142857142857</ele><time>2026-04-21T18:55:34.999Z</time></trkpt><trkpt lat="40.726462656327854" lon="-7.3484565120012775"><ele>497.1428571428572</ele><time>2026-04-21T18:55:39.999Z</time></trkpt><trkpt lat="40.72646618301518" lon="-7.348548194660776"><ele>496.5714285714286</ele><time>2026-04-21T18:55:44.999Z</time></trkpt><trkpt lat="40.72647280411234" lon="-7.348636900624904"><ele>496.0</ele><time>2026-04-21T18:55:49.999Z</time></trkpt><trkpt lat="40.72645279068888" lon="-7.348738713696428"><ele>496.0</ele><time>2026-04-21T18:55:54.999Z</time></trkpt><trkpt lat="40.72643862010264" lon="-7.3488257639826"><ele>496.00000000000006</ele><time>2026-04-21T18:55:59.999Z</time></trkpt><trkpt lat="40.72641410621145" lon="-7.348921555323017"><ele>496.0</ele><time>2026-04-21T18:56:04.999Z</time></trkpt><trkpt lat="40.72638527623954" lon="-7.349023727728748"><ele>496.0</ele><time>2026-04-21T18:56:09.999Z</time></trkpt><trkpt lat="40.72636215716529" lon="-7.349111323657966"><ele>496.00000000000006</ele><time>2026-04-21T18:56:14.999Z</time></trkpt><trkpt lat="40.726328488542876" lon="-7.349181898149132"><ele>496.0</ele><time>2026-04-21T18:56:18.998Z</time></trkpt><trkpt lat="40.72629349770982" lon="-7.349259963562048"><ele>496.0</ele><time>2026-04-21T18:56:22.998Z</time></trkpt><trkpt lat="40.726250385216794" lon="-7.34933323997547"><ele>495.7142857142857</ele><time>2026-04-21T18:56:28Z</time></trkpt><trkpt lat="40.726197541084446" lon="-7.349414258210617"><ele>495.42857142857144</ele><time>2026-04-21T18:56:33Z</time></trkpt><trkpt lat="40.72615220102324" lon="-7.3494754656473145"><ele>495.14285714285717</ele><time>2026-04-21T18:56:37Z</time></trkpt><trkpt lat="40.72610586463444" lon="-7.3495463985791325"><ele>494.8571428571429</ele><time>2026-04-21T18:56:42Z</time></trkpt><trkpt lat="40.726056521010875" lon="-7.349603395794906"><ele>494.57142857142856</ele><time>2026-04-21T18:56:46Z</time></trkpt><trkpt lat="40.72601293455876" lon="-7.3496641260059254"><ele>494.28571428571433</ele><time>2026-04-21T18:56:50Z</time></trkpt><trkpt lat="40.72595457114177" lon="-7.349733596142885"><ele>494.0</ele><time>2026-04-21T18:56:55Z</time></trkpt><trkpt lat="40.72589404253558" lon="-7.349793991814561"><ele>494.7142857142857</ele><time>2026-04-21T18:57:00Z</time></trkpt><trkpt lat="40.72584123415635" lon="-7.349860267500816"><ele>495.42857142857144</ele><time>2026-04-21T18:57:04.999Z</time></trkpt><trkpt lat="40.72579077422716" lon="-7.349914403919648"><ele>496.14285714285717</ele><time>2026-04-21T18:57:08.999Z</time></trkpt><trkpt lat="40.72573925948415" lon="-7.349986634568839"><ele>496.8571428571429</ele><time>2026-04-21T18:57:13.999Z</time></trkpt><trkpt lat="40.72568419887283" lon="-7.350057740390586"><ele>497.57142857142856</ele><time>2026-04-21T18:57:18.999Z</time></trkpt><trkpt lat="40.72564305877887" lon="-7.350143006999285"><ele>498.28571428571433</ele><time>2026-04-21T18:57:23.999Z</time></trkpt><trkpt lat="40.72564079965858" lon="-7.350232025145149"><ele>499.00000000000006</ele><time>2026-04-21T18:57:27.999Z</time></trkpt><trkpt lat="40.725665641406785" lon="-7.350316704763798"><ele>499.00000000000006</ele><time>2026-04-21T18:57:32.999Z</time></trkpt><trkpt lat="40.72570805262961" lon="-7.350402423809171"><ele>499.0</ele><time>2026-04-21T18:57:37.999Z</time></trkpt><trkpt lat="40.72573497175722" lon="-7.350486728165103"><ele>499.00000000000006</ele><time>2026-04-21T18:57:42.999Z</time></trkpt><trkpt lat="40.7257690972834" lon="-7.350580086965095"><ele>499.00000000000006</ele><time>2026-04-21T18:57:47.999Z</time></trkpt><trkpt lat="40.72580242831118" lon="-7.350653591712037"><ele>499.0</ele><time>2026-04-21T18:57:52.999Z</time></trkpt><trkpt lat="40.725834641946435" lon="-7.350734158687952"><ele>499.00000000000006</ele><time>2026-04-21T18:57:57.999Z</time></trkpt><trkpt lat="40.72585885489876" lon="-7.350818929496333"><ele>499.00000000000006</ele><time>2026-04-21T18:58:02.999Z</time></trkpt><trkpt lat="40.72585793738268" lon="-7.350908120294218"><ele>500.00000000000006</ele><time>2026-04-21T18:58:07.999Z</time></trkpt><trkpt lat="40.72584409856712" lon="-7.351006344529325"><ele>501.0</ele><time>2026-04-21T18:58:12.999Z</time></trkpt><trkpt lat="40.72581715355057" lon="-7.351085282759761"><ele>502.00000000000006</ele><time>2026-04-21T18:58:16.999Z</time></trkpt><trkpt lat="40.72578666812802" lon="-7.351196396390492"><ele>503.00000000000006</ele><time>2026-04-21T18:58:22.998Z</time></trkpt><trkpt lat="40.72576457035315" lon="-7.35127875773282"><ele>504.0</ele><time>2026-04-21T18:58:26.998Z</time></trkpt><trkpt lat="40.72574119807728" lon="-7.351374191795277"><ele>505.00000000000006</ele><time>2026-04-21T18:58:32Z</time></trkpt><trkpt lat="40.72571797307861" lon="-7.351470150095182"><ele>506.00000000000006</ele><time>2026-04-21T18:58:37Z</time></trkpt><trkpt lat="40.7256953214044" lon="-7.351554958860709"><ele>506.8571428571429</ele><time>2026-04-21T18:58:42Z</time></trkpt><trkpt lat="40.72566975782767" lon="-7.351638611394261"><ele>507.7142857142857</ele><time>2026-04-21T18:58:47Z</time></trkpt><trkpt lat="40.72564699283912" lon="-7.351730052211198"><ele>508.57142857142856</ele><time>2026-04-21T18:58:52Z</time></trkpt><trkpt lat="40.7256195539962" lon="-7.351815036760664"><ele>509.42857142857144</ele><time>2026-04-21T18:58:57Z</time></trkpt><trkpt lat="40.72558083129256" lon="-7.351911084071249"><ele>510.2857142857142</ele><time>2026-04-21T18:59:02Z</time></trkpt><trkpt lat="40.72551706770555" lon="-7.351964256464266"><ele>511.1428571428571</ele><time>2026-04-21T18:59:07Z</time></trkpt><trkpt lat="40.7254525240029" lon="-7.351998917197095"><ele>512.0</ele><time>2026-04-21T18:59:11.999Z</time></trkpt><trkpt lat="40.725388517765595" lon="-7.3520278805118755"><ele>512.0</ele><time>2026-04-21T18:59:15.999Z</time></trkpt><trkpt lat="40.725328142405075" lon="-7.352057369278064"><ele>511.99999999999994</ele><time>2026-04-21T18:59:20.999Z</time></trkpt><trkpt lat="40.72526439039715" lon="-7.3520758743782615"><ele>512.0</ele><time>2026-04-21T18:59:25.999Z</time></trkpt><trkpt lat="40.72519447023044" lon="-7.352089244309851"><ele>512.0</ele><time>2026-04-21T18:59:30.999Z</time></trkpt><trkpt lat="40.7251263774767" lon="-7.352111162992226"><ele>511.99999999999994</ele><time>2026-04-21T18:59:35.999Z</time></trkpt><trkpt lat="40.72506489065399" lon="-7.352140505114176"><ele>512.0</ele><time>2026-04-21T18:59:40.999Z</time></trkpt><trkpt lat="40.72500806876465" lon="-7.352182697552032"><ele>512.0</ele><time>2026-04-21T18:59:45.999Z</time></trkpt><trkpt lat="40.72494417678918" lon="-7.352240757145904"><ele>512.2857142857142</ele><time>2026-04-21T18:59:50.999Z</time></trkpt><trkpt lat="40.72489397817528" lon="-7.352293579094724"><ele>512.5714285714286</ele><time>2026-04-21T18:59:54.999Z</time></trkpt><trkpt lat="40.72483838831841" lon="-7.352341745714239"><ele>512.8571428571429</ele><time>2026-04-21T18:59:58.999Z</time></trkpt><trkpt lat="40.724790581642324" lon="-7.3523996764943105"><ele>513.1428571428571</ele><time>2026-04-21T19:00:02.999Z</time></trkpt><trkpt lat="40.72474610861836" lon="-7.352463947627711"><ele>513.4285714285714</ele><time>2026-04-21T19:00:06.999Z</time></trkpt><trkpt lat="40.7246906807803" lon="-7.352537723005841"><ele>513.7142857142857</ele><time>2026-04-21T19:00:11.999Z</time></trkpt><trkpt lat="40.7246577951635" lon="-7.352610275039273"><ele>514.0</ele><time>2026-04-21T19:00:15.999Z</time></trkpt><trkpt lat="40.72464191286618" lon="-7.35270854818564"><ele>514.0</ele><time>2026-04-21T19:00:20.999Z</time></trkpt><trkpt lat="40.72462767946177" lon="-7.352791354403246"><ele>514.0</ele><time>2026-04-21T19:00:24.998Z</time></trkpt><trkpt lat="40.72460323908069" lon="-7.35288528838466"><ele>514.0</ele><time>2026-04-21T19:00:29.998Z</time></trkpt><trkpt lat="40.72456037819681" lon="-7.35297002432953"><ele>514.0</ele><time>2026-04-21T19:00:34.998Z</time></trkpt><trkpt lat="40.724517104212566" lon="-7.353057623512226"><ele>514.0</ele><time>2026-04-21T19:00:40Z</time></trkpt><trkpt lat="40.72447662605602" lon="-7.353129265162747"><ele>514.0</ele><time>2026-04-21T19:00:44Z</time></trkpt><trkpt lat="40.72444122267222" lon="-7.35320533170731"><ele>514.0</ele><time>2026-04-21T19:00:48Z</time></trkpt><trkpt lat="40.724405849916266" lon="-7.353275831513512"><ele>513.1428571428571</ele><time>2026-04-21T19:00:52Z</time></trkpt><trkpt lat="40.724361288378965" lon="-7.353356719658338"><ele>512.2857142857143</ele><time>2026-04-21T19:00:57Z</time></trkpt><trkpt lat="40.72431587617479" lon="-7.353434302140742"><ele>511.42857142857144</ele><time>2026-04-21T19:01:02Z</time></trkpt><trkpt lat="40.72426320095413" lon="-7.353506570598651"><ele>510.57142857142856</ele><time>2026-04-21T19:01:07Z</time></trkpt><trkpt lat="40.724216262330124" lon="-7.353564156216652"><ele>509.71428571428567</ele><time>2026-04-21T19:01:11Z</time></trkpt><trkpt lat="40.724172082947824" lon="-7.3536265983293925"><ele>508.8571428571429</ele><time>2026-04-21T19:01:14.999Z</time></trkpt><trkpt lat="40.724129918096494" lon="-7.353692674981408"><ele>508.0</ele><time>2026-04-21T19:01:18.999Z</time></trkpt><trkpt lat="40.72408590062086" lon="-7.3537755453391735"><ele>508.0</ele><time>2026-04-21T19:01:23.999Z</time></trkpt><trkpt lat="40.72404867153542" lon="-7.353844878048569"><ele>508.0</ele><time>2026-04-21T19:01:27.999Z</time></trkpt><trkpt lat="40.724005399858264" lon="-7.353921019810263"><ele>508.0</ele><time>2026-04-21T19:01:32.999Z</time></trkpt><trkpt lat="40.723958695098766" lon="-7.353981307350371"><ele>508.0</ele><time>2026-04-21T19:01:36.999Z</time></trkpt><trkpt lat="40.72391336595893" lon="-7.35406142867595"><ele>508.0</ele><time>2026-04-21T19:01:41.999Z</time></trkpt><trkpt lat="40.72385647961459" lon="-7.354130636623077"><ele>508.0</ele><time>2026-04-21T19:01:46.999Z</time></trkpt><trkpt lat="40.7238121507097" lon="-7.354200757208605"><ele>508.0</ele><time>2026-04-21T19:01:50.999Z</time></trkpt><trkpt lat="40.72375549769742" lon="-7.354247944739778"><ele>507.42857142857144</ele><time>2026-04-21T19:01:54.999Z</time></trkpt><trkpt lat="40.723707141625624" lon="-7.354310180910645"><ele>506.85714285714283</ele><time>2026-04-21T19:01:59.999Z</time></trkpt><trkpt lat="40.72365883193409" lon="-7.354387671986547"><ele>506.2857142857143</ele><time>2026-04-21T19:02:04.999Z</time></trkpt><trkpt lat="40.72361753771828" lon="-7.354450781825648"><ele>505.7142857142857</ele><time>2026-04-21T19:02:08.999Z</time></trkpt><trkpt lat="40.72357676702462" lon="-7.354515684845016"><ele>505.1428571428571</ele><time>2026-04-21T19:02:12.999Z</time></trkpt><trkpt lat="40.723530168582805" lon="-7.354589313601656"><ele>504.57142857142856</ele><time>2026-04-21T19:02:17.999Z</time></trkpt><trkpt lat="40.72348028814968" lon="-7.354665574225941"><ele>504.0</ele><time>2026-04-21T19:02:22.999Z</time></trkpt><trkpt lat="40.7234313379877" lon="-7.354741407452324"><ele>505.5</ele><time>2026-04-21T19:02:27.998Z</time></trkpt><trkpt lat="40.72338881138714" lon="-7.354830004844657"><ele>507.0</ele><time>2026-04-21T19:02:32.998Z</time></trkpt><trkpt lat="40.72334124827835" lon="-7.354914153645266"><ele>508.5</ele><time>2026-04-21T19:02:37.998Z</time></trkpt><trkpt lat="40.72329295578691" lon="-7.355001367714276"><ele>510.0</ele><time>2026-04-21T19:02:43Z</time></trkpt><trkpt lat="40.72323524923505" lon="-7.3550711330454215"><ele>511.5</ele><time>2026-04-21T19:02:48Z</time></trkpt><trkpt lat="40.72317586382586" lon="-7.3551275316132845"><ele>513.0</ele><time>2026-04-21T19:02:53Z</time></trkpt><trkpt lat="40.72312167788163" lon="-7.3552005063417845"><ele>513.0000000000001</ele><time>2026-04-21T19:02:58Z</time></trkpt><trkpt lat="40.72306833292198" lon="-7.355270176750276"><ele>513.0</ele><time>2026-04-21T19:03:03Z</time></trkpt><trkpt lat="40.723042783220194" lon="-7.355358246022922"><ele>513.0</ele><time>2026-04-21T19:03:08Z</time></trkpt><trkpt lat="40.72302119213504" lon="-7.355455776340144"><ele>513.0</ele><time>2026-04-21T19:03:13Z</time></trkpt><trkpt lat="40.72301017441401" lon="-7.3555492041780335"><ele>513.0</ele><time>2026-04-21T19:03:17.999Z</time></trkpt><trkpt lat="40.72300168864219" lon="-7.355647034019146"><ele>513.0000000000001</ele><time>2026-04-21T19:03:22.999Z</time></trkpt><trkpt lat="40.722976081141404" lon="-7.355734058621437"><ele>513.0</ele><time>2026-04-21T19:03:27.999Z</time></trkpt><trkpt lat="40.7229544921673" lon="-7.355827360231068"><ele>513.8571428571429</ele><time>2026-04-21T19:03:32.999Z</time></trkpt><trkpt lat="40.72296051491709" lon="-7.355923920050059"><ele>514.7142857142858</ele><time>2026-04-21T19:03:37.999Z</time></trkpt><trkpt lat="40.722966166580946" lon="-7.356016827981079"><ele>515.5714285714286</ele><time>2026-04-21T19:03:42.999Z</time></trkpt><trkpt lat="40.722965896815765" lon="-7.356106117885914"><ele>516.4285714285714</ele><time>2026-04-21T19:03:47.999Z</time></trkpt><trkpt lat="40.72299332460019" lon="-7.356196145435206"><ele>517.2857142857142</ele><time>2026-04-21T19:03:52.999Z</time></trkpt><trkpt lat="40.72304439866182" lon="-7.356248563243545"><ele>518.1428571428571</ele><time>2026-04-21T19:03:57.999Z</time></trkpt><trkpt lat="40.723113231051435" lon="-7.356301997621037"><ele>519.0</ele><time>2026-04-21T19:04:03.999Z</time></trkpt><trkpt lat="40.7231654225843" lon="-7.356352618925484"><ele>519.2857142857142</ele><time>2026-04-21T19:04:08.999Z</time></trkpt><trkpt lat="40.723225693165446" lon="-7.356387775679855"><ele>519.5714285714286</ele><time>2026-04-21T19:04:13.999Z</time></trkpt><trkpt lat="40.72328687830607" lon="-7.356431892092949"><ele>519.8571428571429</ele><time>2026-04-21T19:04:18.999Z</time></trkpt><trkpt lat="40.723349734502136" lon="-7.356469188983907"><ele>520.1428571428571</ele><time>2026-04-21T19:04:23.999Z</time></trkpt><trkpt lat="40.72341294380784" lon="-7.356510517156036"><ele>520.4285714285714</ele><time>2026-04-21T19:04:28.999Z</time></trkpt><trkpt lat="40.72348004531927" lon="-7.356536283634259"><ele>520.7142857142857</ele><time>2026-04-21T19:04:33.998Z</time></trkpt><trkpt lat="40.72354663286575" lon="-7.356570275698757"><ele>521.0</ele><time>2026-04-21T19:04:38.998Z</time></trkpt><trkpt lat="40.72359819058533" lon="-7.356619840886264"><ele>522.8571428571429</ele><time>2026-04-21T19:04:43.998Z</time></trkpt><trkpt lat="40.723662272517316" lon="-7.356651150192271"><ele>524.7142857142858</ele><time>2026-04-21T19:04:49Z</time></trkpt><trkpt lat="40.723730525013856" lon="-7.356669953212534"><ele>526.5714285714287</ele><time>2026-04-21T19:04:55Z</time></trkpt><trkpt lat="40.72379130787247" lon="-7.356631328374411"><ele>528.4285714285714</ele><time>2026-04-21T19:05:00Z</time></trkpt><trkpt lat="40.72384205630689" lon="-7.35658000174599"><ele>530.2857142857143</ele><time>2026-04-21T19:05:06Z</time></trkpt><trkpt lat="40.72389963320164" lon="-7.356528306613085"><ele>532.1428571428572</ele><time>2026-04-21T19:05:11Z</time></trkpt><trkpt lat="40.72394845776884" lon="-7.356472168478373"><ele>534.0</ele><time>2026-04-21T19:05:16Z</time></trkpt><trkpt lat="40.72400662810926" lon="-7.356424770677929"><ele>534.0000000000001</ele><time>2026-04-21T19:05:21.999Z</time></trkpt><trkpt lat="40.72405826915038" lon="-7.356372403583431"><ele>534.0</ele><time>2026-04-21T19:05:27.999Z</time></trkpt><trkpt lat="40.72412815663178" lon="-7.356323543736771"><ele>534.0</ele><time>2026-04-21T19:05:32.999Z</time></trkpt><trkpt lat="40.72419461300219" lon="-7.356271558265716"><ele>534.0</ele><time>2026-04-21T19:05:37.999Z</time></trkpt><trkpt lat="40.72425326912007" lon="-7.356234368539322"><ele>534.0</ele><time>2026-04-21T19:05:42.999Z</time></trkpt><trkpt lat="40.724317604769645" lon="-7.356234178777029"><ele>534.0000000000001</ele><time>2026-04-21T19:05:47.999Z</time></trkpt><trkpt lat="40.72439207513485" lon="-7.35622379151174"><ele>534.0</ele><time>2026-04-21T19:05:53.999Z</time></trkpt><trkpt lat="40.72445688705346" lon="-7.356203433758334"><ele>535.2857142857143</ele><time>2026-04-21T19:05:58.999Z</time></trkpt><trkpt lat="40.72452951282015" lon="-7.35617281283984"><ele>536.5714285714286</ele><time>2026-04-21T19:06:04.999Z</time></trkpt><trkpt lat="40.724596879027516" lon="-7.356155564320712"><ele>537.8571428571429</ele><time>2026-04-21T19:06:09.999Z</time></trkpt><trkpt lat="40.72467075175355" lon="-7.356132657857288"><ele>539.1428571428571</ele><time>2026-04-21T19:06:14.999Z</time></trkpt><trkpt lat="40.724738298316794" lon="-7.356094943425241"><ele>540.4285714285714</ele><time>2026-04-21T19:06:19.999Z</time></trkpt><trkpt lat="40.72479354209395" lon="-7.356044866300282"><ele>541.7142857142858</ele><time>2026-04-21T19:06:24.999Z</time></trkpt><trkpt lat="40.72484833416367" lon="-7.355990948222989"><ele>543.0</ele><time>2026-04-21T19:06:29.999Z</time></trkpt><trkpt lat="40.72489739309152" lon="-7.35591884194277"><ele>543.0</ele><time>2026-04-21T19:06:34.998Z</time></trkpt><trkpt lat="40.724950082831306" lon="-7.355863149789298"><ele>543.0</ele><time>2026-04-21T19:06:39.998Z</time></trkpt><trkpt lat="40.7250080014451" lon="-7.3558269492332595"><ele>543.0</ele><time>2026-04-21T19:06:43.998Z</time></trkpt><trkpt lat="40.72506564431116" lon="-7.355773379869075"><ele>543.0</ele><time>2026-04-21T19:06:48.998Z</time></trkpt><trkpt lat="40.72512599271993" lon="-7.355726441858299"><ele>543.0</ele><time>2026-04-21T19:06:54Z</time></trkpt><trkpt lat="40.72518856153776" lon="-7.355697485510422"><ele>543.0</ele><time>2026-04-21T19:06:59Z</time></trkpt><trkpt lat="40.72525298578825" lon="-7.355675755931966"><ele>543.0</ele><time>2026-04-21T19:07:04Z</time></trkpt><trkpt lat="40.72532797693373" lon="-7.3556682844044845"><ele>544.2857142857143</ele><time>2026-04-21T19:07:09Z</time></trkpt><trkpt lat="40.72540135733526" lon="-7.355664393348848"><ele>545.5714285714286</ele><time>2026-04-21T19:07:14Z</time></trkpt><trkpt lat="40.725471667653245" lon="-7.35565005940341"><ele>546.8571428571429</ele><time>2026-04-21T19:07:19Z</time></trkpt><trkpt lat="40.72553209065486" lon="-7.355621684335385"><ele>548.1428571428571</ele><time>2026-04-21T19:07:23.999Z</time></trkpt><trkpt lat="40.72559313014643" lon="-7.355579876550433"><ele>549.4285714285714</ele><time>2026-04-21T19:07:28.999Z</time></trkpt><trkpt lat="40.72565275575432" lon="-7.355528168482989"><ele>550.7142857142858</ele><time>2026-04-21T19:07:33.999Z</time></trkpt><trkpt lat="40.72571096889479" lon="-7.355474999832984"><ele>552.0</ele><time>2026-04-21T19:07:38.999Z</time></trkpt><trkpt lat="40.72576967062512" lon="-7.355429742602313"><ele>552.0</ele><time>2026-04-21T19:07:43.999Z</time></trkpt><trkpt lat="40.725841692619056" lon="-7.355411252248025"><ele>552.0</ele><time>2026-04-21T19:07:48.999Z</time></trkpt><trkpt lat="40.72590869991357" lon="-7.3553931155370655"><ele>552.0</ele><time>2026-04-21T19:07:53.999Z</time></trkpt><trkpt lat="40.72597663123518" lon="-7.355363645396324"><ele>552.0</ele><time>2026-04-21T19:07:58.999Z</time></trkpt><trkpt lat="40.72604009657875" lon="-7.355322954442967"><ele>552.0</ele><time>2026-04-21T19:08:03.999Z</time></trkpt><trkpt lat="40.72610446766032" lon="-7.355284908874667"><ele>552.0</ele><time>2026-04-21T19:08:08.999Z</time></trkpt><trkpt lat="40.726167821388664" lon="-7.3552373967699"><ele>552.0</ele><time>2026-04-21T19:08:13.999Z</time></trkpt><trkpt lat="40.72622001221669" lon="-7.3551902883927385"><ele>553.0</ele><time>2026-04-21T19:08:18.999Z</time></trkpt><trkpt lat="40.72628107099791" lon="-7.355150661940891"><ele>554.0</ele><time>2026-04-21T19:08:23.999Z</time></trkpt><trkpt lat="40.726340413568956" lon="-7.35511130578708"><ele>555.0</ele><time>2026-04-21T19:08:28.999Z</time></trkpt><trkpt lat="40.726413799992386" lon="-7.3550701750506775"><ele>556.0</ele><time>2026-04-21T19:08:33.999Z</time></trkpt><trkpt lat="40.72648031911526" lon="-7.355041046748974"><ele>557.0</ele><time>2026-04-21T19:08:38.998Z</time></trkpt><trkpt lat="40.72655409702896" lon="-7.354996880017412"><ele>558.0</ele><time>2026-04-21T19:08:42.998Z</time></trkpt><trkpt lat="40.72661720859409" lon="-7.354969844937366"><ele>559.0</ele><time>2026-04-21T19:08:46.998Z</time></trkpt><trkpt lat="40.72667656944895" lon="-7.354940702192974"><ele>559.0</ele><time>2026-04-21T19:08:50.998Z</time></trkpt><trkpt lat="40.72673745247592" lon="-7.3549033480012636"><ele>559.0</ele><time>2026-04-21T19:08:55.998Z</time></trkpt><trkpt lat="40.72679768170372" lon="-7.3548585372872415"><ele>559.0</ele><time>2026-04-21T19:09:01Z</time></trkpt><trkpt lat="40.72685636115167" lon="-7.354783507805406"><ele>559.0</ele><time>2026-04-21T19:09:06Z</time></trkpt><trkpt lat="40.726897752371386" lon="-7.3547092378742445"><ele>559.0</ele><time>2026-04-21T19:09:11Z</time></trkpt><trkpt lat="40.72694687202778" lon="-7.354641659009961"><ele>559.0</ele><time>2026-04-21T19:09:15Z</time></trkpt><trkpt lat="40.72699740741122" lon="-7.354584969778037"><ele>559.0</ele><time>2026-04-21T19:09:19Z</time></trkpt><trkpt lat="40.727035400626875" lon="-7.354512677104974"><ele>558.2857142857143</ele><time>2026-04-21T19:09:23Z</time></trkpt><trkpt lat="40.727072527227115" lon="-7.354435077511419"><ele>557.5714285714287</ele><time>2026-04-21T19:09:26.999Z</time></trkpt><trkpt lat="40.727116836250815" lon="-7.354366769036941"><ele>556.8571428571429</ele><time>2026-04-21T19:09:30.999Z</time></trkpt><trkpt lat="40.7271592471024" lon="-7.3543052964296605"><ele>556.1428571428571</ele><time>2026-04-21T19:09:34.999Z</time></trkpt><trkpt lat="40.72720898555029" lon="-7.354252730959554"><ele>555.4285714285713</ele><time>2026-04-21T19:09:38.999Z</time></trkpt><trkpt lat="40.727265225124725" lon="-7.354206622424821"><ele>554.7142857142857</ele><time>2026-04-21T19:09:42.999Z</time></trkpt><trkpt lat="40.72733273957314" lon="-7.354154501438512"><ele>554.0</ele><time>2026-04-21T19:09:47.999Z</time></trkpt><trkpt lat="40.72741018539029" lon="-7.3541343276316065"><ele>554.0</ele><time>2026-04-21T19:09:52.999Z</time></trkpt><trkpt lat="40.727486403696304" lon="-7.354112495184155"><ele>554.0</ele><time>2026-04-21T19:09:57.999Z</time></trkpt><trkpt lat="40.7275483890176" lon="-7.354092976800366"><ele>554.0</ele><time>2026-04-21T19:10:01.999Z</time></trkpt><trkpt lat="40.7276168078582" lon="-7.35404617711502"><ele>554.0</ele><time>2026-04-21T19:10:06.999Z</time></trkpt><trkpt lat="40.72766921148093" lon="-7.35399386195759"><ele>554.0</ele><time>2026-04-21T19:10:10.999Z</time></trkpt><trkpt lat="40.72771620151265" lon="-7.35393681994186"><ele>554.0</ele><time>2026-04-21T19:10:14.999Z</time></trkpt><trkpt lat="40.72774726322567" lon="-7.3538475248007185"><ele>554.0</ele><time>2026-04-21T19:10:19.999Z</time></trkpt><trkpt lat="40.72778319353534" lon="-7.353757201839333"><ele>555.0</ele><time>2026-04-21T19:10:24.999Z</time></trkpt><trkpt lat="40.72780822327181" lon="-7.35366820226731"><ele>556.0</ele><time>2026-04-21T19:10:29.999Z</time></trkpt><trkpt lat="40.72781763848344" lon="-7.353584474584653"><ele>557.0</ele><time>2026-04-21T19:10:33.999Z</time></trkpt><trkpt lat="40.72782821298573" lon="-7.353484921916556"><ele>558.0</ele><time>2026-04-21T19:10:38.999Z</time></trkpt><trkpt lat="40.72785021953447" lon="-7.3533971244834175"><ele>559.0</ele><time>2026-04-21T19:10:42.998Z</time></trkpt><trkpt lat="40.72787663724047" lon="-7.353314558193107"><ele>560.0</ele><time>2026-04-21T19:10:46.998Z</time></trkpt><trkpt lat="40.727906916008386" lon="-7.353237007614292"><ele>561.0</ele><time>2026-04-21T19:10:50.998Z</time></trkpt><trkpt lat="40.727941475187535" lon="-7.3531440341727885"><ele>561.0</ele><time>2026-04-21T19:10:55.998Z</time></trkpt><trkpt lat="40.727957965528525" lon="-7.353061575534975"><ele>561.0</ele><time>2026-04-21T19:10:59.998Z</time></trkpt><trkpt lat="40.72798856232594" lon="-7.352979694547258"><ele>561.0</ele><time>2026-04-21T19:11:03.998Z</time></trkpt><trkpt lat="40.72803219777189" lon="-7.352897246954663"><ele>561.0</ele><time>2026-04-21T19:11:09Z</time></trkpt><trkpt lat="40.72807478166549" lon="-7.352832185401302"><ele>561.0</ele><time>2026-04-21T19:11:13Z</time></trkpt><trkpt lat="40.72812819182552" lon="-7.352756982356454"><ele>561.0</ele><time>2026-04-21T19:11:18Z</time></trkpt><trkpt lat="40.728174198522446" lon="-7.352697934743998"><ele>561.0</ele><time>2026-04-21T19:11:22Z</time></trkpt><trkpt lat="40.728214891234636" lon="-7.35261235828732"><ele>560.1428571428571</ele><time>2026-04-21T19:11:27Z</time></trkpt><trkpt lat="40.7282605526815" lon="-7.35252976231675"><ele>559.2857142857142</ele><time>2026-04-21T19:11:31.999Z</time></trkpt><trkpt lat="40.728293922207115" lon="-7.352437044271961"><ele>558.4285714285714</ele><time>2026-04-21T19:11:36.999Z</time></trkpt><trkpt lat="40.728331240683296" lon="-7.3523471396511955"><ele>557.5714285714286</ele><time>2026-04-21T19:11:41.999Z</time></trkpt><trkpt lat="40.72835979148749" lon="-7.352269978472747"><ele>556.7142857142858</ele><time>2026-04-21T19:11:45.999Z</time></trkpt><trkpt lat="40.72838991017975" lon="-7.352195544278232"><ele>555.8571428571429</ele><time>2026-04-21T19:11:49.999Z</time></trkpt><trkpt lat="40.72842831620908" lon="-7.352127783400674"><ele>555.0</ele><time>2026-04-21T19:11:53.999Z</time></trkpt><trkpt lat="40.728466915510054" lon="-7.352044302537704"><ele>555.7142857142858</ele><time>2026-04-21T19:11:58.999Z</time></trkpt><trkpt lat="40.72850230218144" lon="-7.351975238651147"><ele>556.4285714285714</ele><time>2026-04-21T19:12:02.999Z</time></trkpt><trkpt lat="40.72853039104923" lon="-7.351900231131094"><ele>557.1428571428571</ele><time>2026-04-21T19:12:06.999Z</time></trkpt><trkpt lat="40.728582356444846" lon="-7.3518504910709375"><ele>557.8571428571429</ele><time>2026-04-21T19:12:10.999Z</time></trkpt><trkpt lat="40.728651043756216" lon="-7.351806006261758"><ele>558.5714285714286</ele><time>2026-04-21T19:12:15.999Z</time></trkpt><trkpt lat="40.7286977411821" lon="-7.351738920027297"><ele>559.2857142857143</ele><time>2026-04-21T19:12:20.999Z</time></trkpt><trkpt lat="40.72875293298665" lon="-7.351670351114345"><ele>560.0</ele><time>2026-04-21T19:12:25.999Z</time></trkpt><trkpt lat="40.72880771160211" lon="-7.351614729382018"><ele>560.0</ele><time>2026-04-21T19:12:30.999Z</time></trkpt><trkpt lat="40.72886487100959" lon="-7.35157560013672"><ele>560.0</ele><time>2026-04-21T19:12:34.999Z</time></trkpt><trkpt lat="40.72891930204723" lon="-7.351507642111668"><ele>560.0</ele><time>2026-04-21T19:12:39.999Z</time></trkpt><trkpt lat="40.728971274347316" lon="-7.351445228095448"><ele>560.0</ele><time>2026-04-21T19:12:44.998Z</time></trkpt><trkpt lat="40.72903443875774" lon="-7.351383946923549"><ele>560.0</ele><time>2026-04-21T19:12:49.998Z</time></trkpt><trkpt lat="40.72908261526881" lon="-7.351316737312754"><ele>560.0</ele><time>2026-04-21T19:12:53.998Z</time></trkpt><trkpt lat="40.72914329612798" lon="-7.35126031687656"><ele>560.0</ele><time>2026-04-21T19:12:58.998Z</time></trkpt><trkpt lat="40.72921751801935" lon="-7.351229736562335"><ele>558.8571428571429</ele><time>2026-04-21T19:13:03.998Z</time></trkpt><trkpt lat="40.72927902783452" lon="-7.351207754048045"><ele>557.7142857142858</ele><time>2026-04-21T19:13:07.998Z</time></trkpt><trkpt lat="40.72933460719107" lon="-7.351161844263589"><ele>556.5714285714286</ele><time>2026-04-21T19:13:12Z</time></trkpt><trkpt lat="40.72940881724716" lon="-7.351144301795994"><ele>555.4285714285714</ele><time>2026-04-21T19:13:17Z</time></trkpt><trkpt lat="40.72946960254823" lon="-7.3511017771497995"><ele>554.2857142857143</ele><time>2026-04-21T19:13:21Z</time></trkpt><trkpt lat="40.72953359122858" lon="-7.351086945461158"><ele>553.1428571428571</ele><time>2026-04-21T19:13:25Z</time></trkpt><trkpt lat="40.729605389438035" lon="-7.35106080655773"><ele>552.0</ele><time>2026-04-21T19:13:30.999Z</time></trkpt><trkpt lat="40.72967661646967" lon="-7.351034143535948"><ele>552.0</ele><time>2026-04-21T19:13:35.999Z</time></trkpt><trkpt lat="40.729741708306925" lon="-7.351026369069472"><ele>552.0</ele><time>2026-04-21T19:13:39.999Z</time></trkpt><trkpt lat="40.72980525064655" lon="-7.351002152698251"><ele>552.0</ele><time>2026-04-21T19:13:43.999Z</time></trkpt><trkpt lat="40.72987067968573" lon="-7.350980592171324"><ele>552.0</ele><time>2026-04-21T19:13:53.999Z</time></trkpt><trkpt lat="40.72993367869379" lon="-7.350970390088522"><ele>552.0</ele><time>2026-04-21T19:13:58Z</time></trkpt><trkpt lat="40.730006179928445" lon="-7.350952645734067"><ele>552.0</ele><time>2026-04-21T19:14:02Z</time></trkpt><trkpt lat="40.73007872028652" lon="-7.350922628570345"><ele>552.0</ele><time>2026-04-21T19:14:07Z</time></trkpt><trkpt lat="40.73012646959054" lon="-7.350854664220166"><ele>552.0</ele><time>2026-04-21T19:14:12Z</time></trkpt><trkpt lat="40.73015729036068" lon="-7.350769494908599"><ele>552.0</ele><time>2026-04-21T19:14:17Z</time></trkpt><trkpt lat="40.7301879053694" lon="-7.350675784615347"><ele>552.0</ele><time>2026-04-21T19:14:22Z</time></trkpt><trkpt lat="40.73021308493184" lon="-7.350595187045481"><ele>552.0</ele><time>2026-04-21T19:14:26Z</time></trkpt><trkpt lat="40.73025447633977" lon="-7.350521166870024"><ele>552.0</ele><time>2026-04-21T19:14:31Z</time></trkpt><trkpt lat="40.73030255193948" lon="-7.3504395601877786"><ele>552.0</ele><time>2026-04-21T19:14:36Z</time></trkpt><trkpt lat="40.730333708956415" lon="-7.350358332969085"><ele>552.0</ele><time>2026-04-21T19:14:40Z</time></trkpt><trkpt lat="40.73035404127315" lon="-7.350279220969193"><ele>552.5714285714286</ele><time>2026-04-21T19:14:43.999Z</time></trkpt><trkpt lat="40.730391639806186" lon="-7.350192854997813"><ele>553.1428571428572</ele><time>2026-04-21T19:14:48.999Z</time></trkpt><trkpt lat="40.73042097288858" lon="-7.350108613642853"><ele>553.7142857142858</ele><time>2026-04-21T19:14:53.999Z</time></trkpt><trkpt lat="40.730446735627154" lon="-7.3500220889617465"><ele>554.2857142857143</ele><time>2026-04-21T19:14:58.999Z</time></trkpt><trkpt lat="40.73046322185162" lon="-7.349934081746934"><ele>554.8571428571429</ele><time>2026-04-21T19:15:03.999Z</time></trkpt><trkpt lat="40.73049027824345" lon="-7.34983731313158"><ele>555.4285714285714</ele><time>2026-04-21T19:15:09.999Z</time></trkpt><trkpt lat="40.73051566460308" lon="-7.349737149332045"><ele>556.0</ele><time>2026-04-21T19:15:14.999Z</time></trkpt><trkpt lat="40.73055923920836" lon="-7.349655902178622"><ele>556.0</ele><time>2026-04-21T19:15:20.001Z</time></trkpt><trkpt lat="40.73059866685474" lon="-7.349590592818525"><ele>556.0</ele><time>2026-04-21T19:15:24.001Z</time></trkpt><trkpt lat="40.73063273809728" lon="-7.349517797984757"><ele>556.0</ele><time>2026-04-21T19:15:28.001Z</time></trkpt><trkpt lat="40.730672423267045" lon="-7.349434603572444"><ele>556.0</ele><time>2026-04-21T19:15:33Z</time></trkpt><trkpt lat="40.73072850663407" lon="-7.349394988804137"><ele>556.0</ele><time>2026-04-21T19:15:38Z</time></trkpt><trkpt lat="40.73078183839338" lon="-7.349349081481754"><ele>556.0</ele><time>2026-04-21T19:15:42Z</time></trkpt><trkpt lat="40.73084020963066" lon="-7.349309463831676"><ele>556.0</ele><time>2026-04-21T19:15:46Z</time></trkpt><trkpt lat="40.73093519855687" lon="-7.349241708818143"><ele>556.0</ele><time>2026-04-21T19:24:52.444Z</time></trkpt><trkpt lat="40.730991036073654" lon="-7.349190771128465"><ele>556.0</ele><time>2026-04-21T19:24:56.451Z</time></trkpt><trkpt lat="40.73104851741255" lon="-7.349134642658409"><ele>556.0</ele><time>2026-04-21T19:25:02Z</time></trkpt><trkpt lat="40.73110480071588" lon="-7.349077887161724"><ele>556.0</ele><time>2026-04-21T19:25:06Z</time></trkpt><trkpt lat="40.73115140079892" lon="-7.349002110572795"><ele>556.0</ele><time>2026-04-21T19:25:10Z</time></trkpt><trkpt lat="40.731208438585924" lon="-7.348936812976552"><ele>556.0</ele><time>2026-04-21T19:25:14Z</time></trkpt><trkpt lat="40.73121015775529" lon="-7.348850688134524"><ele>556.0</ele><time>2026-04-21T19:25:18Z</time></trkpt><trkpt lat="40.73125148937457" lon="-7.348776498060255"><ele>556.1428571428571</ele><time>2026-04-21T19:25:23Z</time></trkpt><trkpt lat="40.731305447382226" lon="-7.348697815790161"><ele>556.2857142857143</ele><time>2026-04-21T19:25:28Z</time></trkpt><trkpt lat="40.731348177462415" lon="-7.3486351213992895"><ele>556.4285714285714</ele><time>2026-04-21T19:25:32Z</time></trkpt><trkpt lat="40.73139018403582" lon="-7.348570907572797"><ele>556.5714285714286</ele><time>2026-04-21T19:25:36Z</time></trkpt><trkpt lat="40.73142892986095" lon="-7.348503987159527"><ele>556.7142857142857</ele><time>2026-04-21T19:25:40Z</time></trkpt><trkpt lat="40.73146310480987" lon="-7.3484268196613325"><ele>556.8571428571429</ele><time>2026-04-21T19:25:44Z</time></trkpt><trkpt lat="40.731472479449415" lon="-7.348338983868206"><ele>557.0</ele><time>2026-04-21T19:25:48Z</time></trkpt><trkpt lat="40.73147331246992" lon="-7.348249682006226"><ele>557.0</ele><time>2026-04-21T19:25:52Z</time></trkpt><trkpt lat="40.73147887745864" lon="-7.3481505975497985"><ele>557.0</ele><time>2026-04-21T19:25:57Z</time></trkpt><trkpt lat="40.73151378600687" lon="-7.348080050003696"><ele>557.0</ele><time>2026-04-21T19:26:01Z</time></trkpt><trkpt lat="40.73153121434125" lon="-7.347994488600592"><ele>557.0</ele><time>2026-04-21T19:26:05Z</time></trkpt><trkpt lat="40.73154319468839" lon="-7.347905551729535"><ele>557.0</ele><time>2026-04-21T19:26:10Z</time></trkpt><trkpt lat="40.73156372770638" lon="-7.347811969014207"><ele>557.0</ele><time>2026-04-21T19:26:13.999Z</time></trkpt><trkpt lat="40.7316028490813" lon="-7.34773770473906"><ele>557.0</ele><time>2026-04-21T19:26:17.999Z</time></trkpt><trkpt lat="40.7316281438597" lon="-7.34764071108884"><ele>555.7142857142858</ele><time>2026-04-21T19:26:22.999Z</time></trkpt><trkpt lat="40.73167680604379" lon="-7.347564490522826"><ele>554.4285714285714</ele><time>2026-04-21T19:26:27.999Z</time></trkpt><trkpt lat="40.73172102565736" lon="-7.347482202194501"><ele>553.1428571428571</ele><time>2026-04-21T19:26:32.999Z</time></trkpt><trkpt lat="40.73174887021998" lon="-7.347392710876672"><ele>551.8571428571429</ele><time>2026-04-21T19:26:37.999Z</time></trkpt><trkpt lat="40.73177374036461" lon="-7.347304994017857"><ele>550.5714285714286</ele><time>2026-04-21T19:26:41.999Z</time></trkpt><trkpt lat="40.73173077712244" lon="-7.347225368446908"><ele>549.2857142857143</ele><time>2026-04-21T19:26:47.999Z</time></trkpt><trkpt lat="40.731726301651236" lon="-7.347134750501652"><ele>548.0</ele><time>2026-04-21T19:26:51.999Z</time></trkpt><trkpt lat="40.73170369637706" lon="-7.347036498837857"><ele>546.5714285714287</ele><time>2026-04-21T19:26:55.999Z</time></trkpt><trkpt lat="40.73167783746167" lon="-7.346949829857204"><ele>545.1428571428571</ele><time>2026-04-21T19:27:01Z</time></trkpt><trkpt lat="40.731642335117165" lon="-7.346869351647488"><ele>543.7142857142858</ele><time>2026-04-21T19:27:06Z</time></trkpt><trkpt lat="40.73164405315591" lon="-7.346761724801498"><ele>542.2857142857143</ele><time>2026-04-21T19:27:11Z</time></trkpt><trkpt lat="40.731627315156494" lon="-7.346678277776331"><ele>540.8571428571429</ele><time>2026-04-21T19:27:15Z</time></trkpt><trkpt lat="40.73162923754646" lon="-7.346577238782233"><ele>539.4285714285714</ele><time>2026-04-21T19:27:20Z</time></trkpt><trkpt lat="40.7316839930002" lon="-7.346506143720838"><ele>538.0</ele><time>2026-04-21T19:27:24Z</time></trkpt><trkpt lat="40.73168865908795" lon="-7.34641874950943"><ele>537.0</ele><time>2026-04-21T19:27:29Z</time></trkpt><trkpt lat="40.73167125492805" lon="-7.346335092587987"><ele>536.0</ele><time>2026-04-21T19:27:33Z</time></trkpt><trkpt lat="40.73162403656166" lon="-7.3462676830907645"><ele>535.0</ele><time>2026-04-21T19:27:37Z</time></trkpt><trkpt lat="40.731562742671876" lon="-7.346213529116343"><ele>534.0</ele><time>2026-04-21T19:27:42Z</time></trkpt><trkpt lat="40.73150048059367" lon="-7.346170807171044"><ele>533.0</ele><time>2026-04-21T19:27:46Z</time></trkpt><trkpt lat="40.73143964915713" lon="-7.346138009142769"><ele>532.0</ele><time>2026-04-21T19:27:50Z</time></trkpt><trkpt lat="40.73137396372677" lon="-7.346113583595971"><ele>531.0</ele><time>2026-04-21T19:27:54Z</time></trkpt><trkpt lat="40.73129665567852" lon="-7.346103538097128"><ele>531.0</ele><time>2026-04-21T19:27:59Z</time></trkpt><trkpt lat="40.73123434587053" lon="-7.346086360936066"><ele>531.0</ele><time>2026-04-21T19:28:03Z</time></trkpt><trkpt lat="40.73118064930203" lon="-7.3461344722978845"><ele>531.0</ele><time>2026-04-21T19:28:08Z</time></trkpt><trkpt lat="40.73112394653975" lon="-7.3461836922284505"><ele>531.0</ele><time>2026-04-21T19:28:13Z</time></trkpt><trkpt lat="40.73106416324718" lon="-7.346237932105093"><ele>531.0</ele><time>2026-04-21T19:28:17.999Z</time></trkpt><trkpt lat="40.7309948621799" lon="-7.346271323334791"><ele>531.0</ele><time>2026-04-21T19:28:22.999Z</time></trkpt><trkpt lat="40.73093403287628" lon="-7.346306812697144"><ele>531.0</ele><time>2026-04-21T19:28:26.999Z</time></trkpt><trkpt lat="40.73085614948468" lon="-7.346324581847876"><ele>530.4285714285714</ele><time>2026-04-21T19:28:31.999Z</time></trkpt><trkpt lat="40.73078954118113" lon="-7.346340106313904"><ele>529.8571428571429</ele><time>2026-04-21T19:28:35.999Z</time></trkpt><trkpt lat="40.73072826446471" lon="-7.3463656416328496"><ele>529.2857142857143</ele><time>2026-04-21T19:28:39.999Z</time></trkpt><trkpt lat="40.73065565517945" lon="-7.346365886232218"><ele>528.7142857142858</ele><time>2026-04-21T19:28:43.999Z</time></trkpt><trkpt lat="40.730591980685496" lon="-7.346364279225641"><ele>528.1428571428571</ele><time>2026-04-21T19:28:47.999Z</time></trkpt><trkpt lat="40.7305211563542" lon="-7.346362902930165"><ele>527.5714285714287</ele><time>2026-04-21T19:28:51.999Z</time></trkpt><trkpt lat="40.730443766837915" lon="-7.3463561712895284"><ele>527.0</ele><time>2026-04-21T19:28:56.999Z</time></trkpt><trkpt lat="40.73037280853115" lon="-7.346379645856567"><ele>527.0000000000001</ele><time>2026-04-21T19:29:01.999Z</time></trkpt><trkpt lat="40.73030827550664" lon="-7.346417699482413"><ele>527.0</ele><time>2026-04-21T19:29:07Z</time></trkpt><trkpt lat="40.730242192050696" lon="-7.346465198897899"><ele>527.0</ele><time>2026-04-21T19:29:12Z</time></trkpt><trkpt lat="40.73017829216521" lon="-7.346500960509724"><ele>527.0</ele><time>2026-04-21T19:29:17Z</time></trkpt><trkpt lat="40.730114021141524" lon="-7.3465516219799305"><ele>527.0</ele><time>2026-04-21T19:29:22Z</time></trkpt><trkpt lat="40.73006310140135" lon="-7.346607709791005"><ele>527.0000000000001</ele><time>2026-04-21T19:29:27Z</time></trkpt><trkpt lat="40.730003439930634" lon="-7.346654141834763"><ele>527.0</ele><time>2026-04-21T19:29:32Z</time></trkpt><trkpt lat="40.7299450532196" lon="-7.3466924910968325"><ele>525.7142857142858</ele><time>2026-04-21T19:29:36Z</time></trkpt><trkpt lat="40.72988802143356" lon="-7.346728879317273"><ele>524.4285714285714</ele><time>2026-04-21T19:29:40Z</time></trkpt><trkpt lat="40.72981400794679" lon="-7.346768560827912"><ele>523.1428571428571</ele><time>2026-04-21T19:29:45Z</time></trkpt><trkpt lat="40.72975773567024" lon="-7.346806190897309"><ele>521.8571428571429</ele><time>2026-04-21T19:29:49Z</time></trkpt><trkpt lat="40.72969009784669" lon="-7.346847204050383"><ele>520.5714285714286</ele><time>2026-04-21T19:29:54Z</time></trkpt><trkpt lat="40.72962540092752" lon="-7.3468932644502996"><ele>519.2857142857143</ele><time>2026-04-21T19:29:59Z</time></trkpt><trkpt lat="40.72956117737015" lon="-7.346945312084741"><ele>518.0</ele><time>2026-04-21T19:30:04Z</time></trkpt><trkpt lat="40.729498253982655" lon="-7.347006440397285"><ele>518.0</ele><time>2026-04-21T19:30:09Z</time></trkpt><trkpt lat="40.72944083937477" lon="-7.347046134633232"><ele>518.0</ele><time>2026-04-21T19:30:12.999Z</time></trkpt><trkpt lat="40.72938572339799" lon="-7.347100764493902"><ele>518.0</ele><time>2026-04-21T19:30:17.999Z</time></trkpt><trkpt lat="40.72932348221205" lon="-7.347164129942753"><ele>518.0</ele><time>2026-04-21T19:30:22.999Z</time></trkpt><trkpt lat="40.72926242484217" lon="-7.34721284516927"><ele>518.0</ele><time>2026-04-21T19:30:27.999Z</time></trkpt><trkpt lat="40.72919800008138" lon="-7.347263699329437"><ele>518.0</ele><time>2026-04-21T19:30:32.999Z</time></trkpt><trkpt lat="40.72913699106859" lon="-7.3473152772736245"><ele>518.0</ele><time>2026-04-21T19:30:37.999Z</time></trkpt><trkpt lat="40.72906821341493" lon="-7.347354058082328"><ele>517.6666666666666</ele><time>2026-04-21T19:30:42.999Z</time></trkpt><trkpt lat="40.72900686027166" lon="-7.34741056819884"><ele>517.3333333333333</ele><time>2026-04-21T19:30:47.999Z</time></trkpt><trkpt lat="40.72894026644369" lon="-7.34747525384822"><ele>517.0</ele><time>2026-04-21T19:30:52.999Z</time></trkpt><trkpt lat="40.728876395431804" lon="-7.3475185185666065"><ele>516.6666666666666</ele><time>2026-04-21T19:30:57.999Z</time></trkpt><trkpt lat="40.72879909030924" lon="-7.347524313669613"><ele>516.3333333333334</ele><time>2026-04-21T19:31:01.999Z</time></trkpt><trkpt lat="40.72872855951313" lon="-7.347477023599675"><ele>516.0</ele><time>2026-04-21T19:31:05.999Z</time></trkpt><trkpt lat="40.72866146724175" lon="-7.347425030023027"><ele>515.9999999999999</ele><time>2026-04-21T19:31:10Z</time></trkpt><trkpt lat="40.72860705168813" lon="-7.347378699980177"><ele>516.0</ele><time>2026-04-21T19:31:14Z</time></trkpt><trkpt lat="40.72856045780063" lon="-7.347319670255519"><ele>516.0</ele><time>2026-04-21T19:31:18Z</time></trkpt><trkpt lat="40.72851020556833" lon="-7.3472604420146"><ele>516.0</ele><time>2026-04-21T19:31:22Z</time></trkpt><trkpt lat="40.72845580344112" lon="-7.347193207319281"><ele>516.0</ele><time>2026-04-21T19:31:27Z</time></trkpt><trkpt lat="40.728398369535874" lon="-7.347142200983787"><ele>515.9999999999999</ele><time>2026-04-21T19:31:32Z</time></trkpt><trkpt lat="40.7283352455935" lon="-7.34708262644166"><ele>516.0</ele><time>2026-04-21T19:31:37Z</time></trkpt><trkpt lat="40.72828766828522" lon="-7.3470212250240685"><ele>505.0</ele><time>2026-04-21T19:31:41Z</time></trkpt><trkpt lat="40.72823747631983" lon="-7.346968236754517"><ele>505.0</ele><time>2026-04-21T19:31:45Z</time></trkpt><trkpt lat="40.72817021138997" lon="-7.346919727164543"><ele>505.0</ele><time>2026-04-21T19:31:50Z</time></trkpt><trkpt lat="40.72811570329234" lon="-7.346844806712414"><ele>505.0</ele><time>2026-04-21T19:31:55Z</time></trkpt><trkpt lat="40.728063804849484" lon="-7.346795667326035"><ele>505.0</ele><time>2026-04-21T19:31:59Z</time></trkpt></trkseg></trk></gpx>